createdAt,value
2023-03-12T00:02:17.983Z,11.2
2023-03-12T00:14:24.598Z,10.7
2023-03-12T00:28:18.723Z,10.7
2023-03-12T00:44:07.114Z,10.3
2023-03-12T00:49:31.337Z,10.4
2023-03-12T01:03:31.909Z,10.3
2023-03-12T01:19:29.206Z,10.3
2023-03-12T01:27:03.766Z,10.2
2023-03-12T01:41:04.182Z,10.1
2023-03-12T01:45:53.119Z,10.0
2023-03-12T01:59:53.139Z,10.0
2023-03-12T02:13:53.122Z,10.1
2023-03-12T02:27:53.268Z,10.1
2023-03-12T02:34:33.598Z,10.1
2023-03-12T02:42:38.140Z,10.1
2023-03-12T02:56:38.014Z,10.1
2023-03-12T03:01:34.363Z,10.0
2023-03-12T03:18:45.045Z,9.8
2023-03-12T03:27:46.681Z,9.7
2023-03-12T03:35:17.143Z,9.6
2023-03-12T03:46:17.938Z,9.6
2023-03-12T04:02:22.049Z,9.4
2023-03-12T04:11:22.995Z,9.3
2023-03-12T04:17:58.130Z,9.3
2023-03-12T04:31:57.928Z,9.3
2023-03-12T04:47:07.472Z,9.0
2023-03-12T04:55:57.956Z,8.8
2023-03-12T05:09:20.848Z,8.6
2023-03-12T05:23:21.317Z,8.2
2023-03-12T05:38:20.880Z,7.9
2023-03-12T05:53:20.907Z,7.6
2023-03-12T06:11:12.235Z,7.6
2023-03-12T06:22:46.160Z,7.6
2023-03-12T06:35:35.745Z,8.0
2023-03-12T06:45:54.474Z,8.3
2023-03-12T06:50:36.209Z,8.4
2023-03-12T07:05:36.333Z,9.0
2023-03-12T07:19:28.506Z,9.4
2023-03-12T07:34:30.736Z,10.9
2023-03-12T07:47:28.435Z,11.0
2023-03-12T07:56:02.517Z,10.9
2023-03-12T08:00:00.343Z,10.8
2023-03-12T08:09:29.686Z,11.1
2023-03-12T08:13:14.146Z,11.2
2023-03-12T08:19:37.623Z,11.6
2023-03-12T08:30:44.362Z,12.3
2023-03-12T08:44:24.319Z,12.7
2023-03-12T08:51:47.076Z,13.4
2023-03-12T09:04:13.489Z,14.6
2023-03-12T09:19:17.394Z,14.8
2023-03-12T09:29:33.153Z,15.4
2023-03-12T09:44:32.442Z,15.0
2023-03-12T09:56:00.930Z,14.5
2023-03-12T10:03:04.129Z,14.4
2023-03-12T10:15:18.229Z,14.0
2023-03-12T10:23:34.004Z,14.7
2023-03-12T10:28:36.212Z,14.6
2023-03-12T10:33:24.450Z,14.4
2023-03-12T10:48:25.525Z,14.9
2023-03-12T10:51:52.807Z,14.5
2023-03-12T11:08:25.063Z,14.7
2023-03-12T11:13:42.020Z,14.9
2023-03-12T11:20:59.917Z,14.6
2023-03-12T11:25:25.973Z,14.8
2023-03-12T11:32:02.346Z,14.8
2023-03-12T11:40:57.439Z,15.0
2023-03-12T11:44:17.310Z,15.1
2023-03-12T11:54:45.389Z,15.7
2023-03-12T12:01:08.177Z,16.1
2023-03-12T12:18:37.619Z,16.2
2023-03-12T12:25:33.709Z,16.1
2023-03-12T12:35:40.420Z,16.2
2023-03-12T12:41:55.727Z,16.3
2023-03-12T12:52:55.013Z,16.9
2023-03-12T13:06:20.884Z,17.0
2023-03-12T13:21:20.845Z,17.3
2023-03-12T13:26:07.767Z,17.4
2023-03-12T13:45:47.903Z,17.8
2023-03-12T13:48:53.620Z,17.8
2023-03-12T13:54:58.624Z,16.7
2023-03-12T14:05:17.957Z,17.3
2023-03-12T14:15:08.748Z,18.3
2023-03-12T14:31:00.069Z,17.8
2023-03-12T14:40:44.350Z,17.8
2023-03-12T14:49:49.659Z,17.8
2023-03-12T15:01:53.514Z,17.8
2023-03-12T15:09:23.219Z,17.8
2023-03-12T15:12:02.817Z,17.7
2023-03-12T15:23:43.134Z,18.2
2023-03-12T15:30:09.631Z,17.8
2023-03-12T15:34:59.365Z,18.2
2023-03-12T15:45:56.324Z,17.1
2023-03-12T15:58:44.125Z,16.7
2023-03-12T16:14:44.187Z,16.2
2023-03-12T16:26:45.928Z,15.0
2023-03-12T16:34:42.667Z,13.9
2023-03-12T16:38:07.277Z,13.5
2023-03-12T16:50:11.931Z,12.7
2023-03-12T17:02:50.940Z,11.7
2023-03-12T17:08:07.909Z,11.4
2023-03-12T17:13:49.090Z,11.1
2023-03-12T17:25:25.961Z,10.5
2023-03-12T17:27:38.241Z,10.4
2023-03-12T17:40:48.728Z,9.4
2023-03-12T17:51:42.065Z,9.2
2023-03-12T18:11:31.720Z,8.1
2023-03-12T18:18:19.585Z,7.8
2023-03-12T18:22:47.556Z,7.7
2023-03-12T18:37:19.572Z,7.5
2023-03-12T18:51:19.544Z,7.3
2023-03-12T19:04:12.945Z,6.9
2023-03-12T19:16:34.049Z,6.1
2023-03-12T19:24:21.777Z,5.8
2023-03-12T19:27:46.160Z,5.6
2023-03-12T19:51:07.967Z,5.6
2023-03-12T20:01:15.593Z,5.1
2023-03-12T20:16:13.886Z,5.2
2023-03-12T20:27:27.852Z,4.8
2023-03-12T20:31:54.891Z,5.2
2023-03-12T20:46:09.385Z,6.3
2023-03-12T21:00:09.329Z,6.4
2023-03-12T21:15:08.310Z,6.2
2023-03-12T21:25:04.519Z,5.3
2023-03-12T21:30:53.062Z,5.5
2023-03-12T21:38:19.576Z,5.5
2023-03-12T21:52:19.642Z,5.2
2023-03-12T21:56:41.329Z,5.1
2023-03-12T22:10:43.079Z,4.7
2023-03-12T22:24:41.412Z,4.3
2023-03-12T22:28:45.957Z,4.3
2023-03-12T22:36:01.703Z,4.5
2023-03-12T22:50:01.840Z,4.3
2023-03-12T22:55:05.256Z,4.3
2023-03-12T22:59:54.170Z,4.3
2023-03-12T23:04:17.721Z,4.3
2023-03-12T23:20:01.367Z,4.0
2023-03-12T23:30:19.253Z,3.5
2023-03-12T23:35:16.503Z,3.3
2023-03-12T23:42:17.940Z,3.1
2023-03-12T23:52:27.005Z,3.2
